createdAt,value
2019-02-27T00:00:56.292Z,1028.35
2019-02-27T00:01:56.286Z,1028.36
2019-02-27T00:02:56.705Z,1028.32
2019-02-27T00:03:56.269Z,1028.32
2019-02-27T00:04:56.252Z,1028.34
2019-02-27T00:05:56.235Z,1028.31
2019-02-27T00:06:56.224Z,1028.25
2019-02-27T00:07:56.249Z,1028.25
2019-02-27T00:08:57.888Z,1028.29
2019-02-27T00:09:56.200Z,1028.29
2019-02-27T00:10:56.196Z,1028.29
2019-02-27T00:11:56.185Z,1028.27
2019-02-27T00:12:56.170Z,1028.28
2019-02-27T00:13:58.000Z,1028.26
2019-02-27T00:14:56.161Z,1028.26
2019-02-27T00:15:56.154Z,1028.25
2019-02-27T00:16:56.123Z,1028.24
2019-02-27T00:17:56.148Z,1028.20
2019-02-27T00:18:58.595Z,1028.20
2019-02-27T00:19:56.105Z,1028.22
2019-02-27T00:20:56.112Z,1028.19
2019-02-27T00:21:56.106Z,1028.21
2019-02-27T00:22:56.083Z,1028.20
2019-02-27T00:23:56.871Z,1028.18
2019-02-27T00:24:56.061Z,1028.19
2019-02-27T00:25:56.033Z,1028.22
2019-02-27T00:26:56.033Z,1028.19
2019-02-27T00:27:56.043Z,1028.19
2019-02-27T00:28:56.704Z,1028.17
2019-02-27T00:29:55.989Z,1028.18
2019-02-27T00:30:55.972Z,1028.15
2019-02-27T00:31:55.982Z,1028.16
2019-02-27T00:32:55.973Z,1028.16
2019-02-27T00:33:59.594Z,1028.17
2019-02-27T00:34:55.935Z,1028.14
2019-02-27T00:35:55.918Z,1028.15
2019-02-27T00:36:55.913Z,1028.12
2019-02-27T00:37:55.902Z,1028.13
2019-02-27T00:38:57.918Z,1028.10
2019-02-27T00:39:55.890Z,1028.12
2019-02-27T00:40:55.866Z,1028.12
2019-02-27T00:41:55.876Z,1028.06
2019-02-27T00:42:55.844Z,1028.08
2019-02-27T00:43:55.854Z,1028.10
2019-02-27T00:44:55.855Z,1028.09
2019-02-27T00:45:55.830Z,1028.06
2019-02-27T00:46:55.802Z,1028.08
2019-02-27T00:47:55.794Z,1028.06
2019-02-27T00:48:59.032Z,1028.04
2019-02-27T00:49:55.772Z,1028.02
2019-02-27T00:50:55.802Z,1028.05
2019-02-27T00:51:55.748Z,1028.03
2019-02-27T00:52:55.741Z,1028.02
2019-02-27T00:53:55.907Z,1028.07
2019-02-27T00:54:55.737Z,1028.02
2019-02-27T00:55:55.712Z,1028.04
2019-02-27T00:56:55.693Z,1028.00
2019-02-27T00:57:55.685Z,1028.00
2019-02-27T00:58:59.974Z,1027.98
2019-02-27T00:59:56.696Z,1028.00
2019-02-27T01:00:55.652Z,1027.97
2019-02-27T01:01:55.657Z,1027.99
2019-02-27T01:02:55.676Z,1027.98
2019-02-27T01:03:59.288Z,1027.91
2019-02-27T01:04:56.628Z,1027.93
2019-02-27T01:05:55.620Z,1027.94
2019-02-27T01:06:55.591Z,1027.93
2019-02-27T01:07:55.572Z,1027.88
2019-02-27T01:08:55.584Z,1027.91
2019-02-27T01:09:55.556Z,1027.89
2019-02-27T01:10:55.540Z,1027.93
2019-02-27T01:11:55.577Z,1027.88
2019-02-27T01:12:57.925Z,1027.88
2019-02-27T01:13:55.516Z,1027.80
2019-02-27T01:14:55.514Z,1027.78
2019-02-27T01:15:55.488Z,1027.78
2019-02-27T01:16:55.482Z,1027.75
2019-02-27T01:17:57.456Z,1027.75
2019-02-27T01:18:55.461Z,1027.85
2019-02-27T01:19:55.461Z,1027.77
2019-02-27T01:20:55.445Z,1027.74
2019-02-27T01:21:55.462Z,1027.71
2019-02-27T01:22:55.419Z,1027.75
2019-02-27T01:23:55.443Z,1027.66
2019-02-27T01:24:55.405Z,1027.64
2019-02-27T01:25:56.914Z,1027.64
2019-02-27T01:26:55.402Z,1027.63
2019-02-27T01:27:55.365Z,1027.62
2019-02-27T01:28:55.358Z,1027.59
2019-02-27T01:29:55.366Z,1027.61
2019-02-27T01:30:55.355Z,1027.54
2019-02-27T01:31:57.619Z,1027.52
2019-02-27T01:32:55.308Z,1027.51
2019-02-27T01:33:55.321Z,1027.47
2019-02-27T01:34:55.315Z,1027.45
2019-02-27T01:35:55.301Z,1027.45
2019-02-27T01:36:58.031Z,1027.44
2019-02-27T01:37:55.265Z,1027.45
2019-02-27T01:38:55.243Z,1027.45
2019-02-27T01:39:55.250Z,1027.42
2019-02-27T01:40:55.241Z,1027.39
2019-02-27T01:41:57.854Z,1027.38
2019-02-27T01:42:55.221Z,1027.38
2019-02-27T01:43:55.208Z,1027.37
2019-02-27T01:44:55.210Z,1027.38
2019-02-27T01:45:55.178Z,1027.38
2019-02-27T01:46:55.168Z,1027.36
2019-02-27T01:47:55.164Z,1027.31
2019-02-27T01:48:55.162Z,1027.35
2019-02-27T01:49:55.142Z,1027.30
2019-02-27T01:50:55.824Z,1027.31
2019-02-27T01:51:55.119Z,1027.27
2019-02-27T01:52:55.104Z,1027.28
2019-02-27T01:53:55.101Z,1027.29
2019-02-27T01:54:55.085Z,1027.21
2019-02-27T01:55:56.390Z,1027.22
2019-02-27T01:56:55.059Z,1027.19
2019-02-27T01:57:55.046Z,1027.20
2019-02-27T01:58:55.047Z,1027.19
2019-02-27T01:59:55.024Z,1027.16
2019-02-27T02:00:56.253Z,1027.16
2019-02-27T02:01:55.036Z,1027.14
2019-02-27T02:02:54.993Z,1027.12
2019-02-27T02:03:54.979Z,1027.13
2019-02-27T02:04:54.969Z,1027.17
2019-02-27T02:05:58.820Z,1027.16
2019-02-27T02:06:54.991Z,1027.14
2019-02-27T02:07:54.955Z,1027.09
2019-02-27T02:08:54.960Z,1027.11
2019-02-27T02:09:55.761Z,1027.06
2019-02-27T02:10:54.913Z,1027.05
2019-02-27T02:11:54.903Z,1027.04
2019-02-27T02:12:54.921Z,1027.03
2019-02-27T02:13:54.881Z,1027.03
2019-02-27T02:14:54.996Z,1027.01
2019-02-27T02:15:54.867Z,1027.03
2019-02-27T02:16:54.853Z,1027.00
2019-02-27T02:17:54.854Z,1026.93
2019-02-27T02:18:54.828Z,1026.97
2019-02-27T02:19:54.816Z,1026.97
2019-02-27T02:20:54.850Z,1026.95
2019-02-27T02:21:54.793Z,1026.94
2019-02-27T02:22:54.813Z,1026.93
2019-02-27T02:23:54.776Z,1026.86
2019-02-27T02:24:54.872Z,1026.86
2019-02-27T02:25:54.760Z,1026.89
2019-02-27T02:26:54.746Z,1026.83
2019-02-27T02:27:54.771Z,1026.85
2019-02-27T02:28:54.738Z,1026.82
2019-02-27T02:29:54.775Z,1026.82
2019-02-27T02:30:54.698Z,1026.87
2019-02-27T02:31:54.686Z,1026.82
2019-02-27T02:32:54.698Z,1026.81
2019-02-27T02:33:54.699Z,1026.82
2019-02-27T02:34:54.652Z,1026.79
2019-02-27T02:35:54.650Z,1026.83
2019-02-27T02:37:01.232Z,1026.79
2019-02-27T02:37:55.637Z,1026.77
2019-02-27T02:38:54.629Z,1026.73
2019-02-27T02:39:55.360Z,1026.73
2019-02-27T02:40:54.595Z,1026.74
2019-02-27T02:41:54.588Z,1026.72
2019-02-27T02:42:54.577Z,1026.66
2019-02-27T02:43:54.602Z,1026.64
2019-02-27T02:44:57.719Z,1026.68
2019-02-27T02:45:54.541Z,1026.58
2019-02-27T02:46:54.526Z,1026.51
2019-02-27T02:47:55.817Z,1026.54
2019-02-27T02:48:54.502Z,1026.53
2019-02-27T02:49:54.534Z,1026.49
2019-02-27T02:50:55.104Z,1026.47
2019-02-27T02:51:54.509Z,1026.46
2019-02-27T02:52:54.467Z,1026.46
2019-02-27T02:54:00.415Z,1026.45
2019-02-27T02:54:55.501Z,1026.43
2019-02-27T02:55:54.437Z,1026.43
2019-02-27T02:57:00.217Z,1026.39
2019-02-27T02:57:55.444Z,1026.39
2019-02-27T02:58:54.401Z,1026.37
2019-02-27T02:59:59.427Z,1026.36
2019-02-27T03:00:55.371Z,1026.39
2019-02-27T03:01:54.382Z,1026.36
2019-02-27T03:02:57.603Z,1026.32
2019-02-27T03:03:55.358Z,1026.33
2019-02-27T03:04:54.373Z,1026.33
2019-02-27T03:05:58.486Z,1026.30
2019-02-27T03:06:55.315Z,1026.28
2019-02-27T03:07:54.316Z,1026.27
2019-02-27T03:08:55.428Z,1026.29
2019-02-27T03:09:54.288Z,1026.28
2019-02-27T03:10:54.297Z,1026.32
2019-02-27T03:11:55.635Z,1026.28
2019-02-27T03:12:54.257Z,1026.26
2019-02-27T03:13:54.271Z,1026.25
2019-02-27T03:14:54.543Z,1026.25
2019-02-27T03:15:54.261Z,1026.20
2019-02-27T03:16:54.247Z,1026.22
2019-02-27T03:17:55.158Z,1026.20
2019-02-27T03:18:54.187Z,1026.20
2019-02-27T03:19:54.187Z,1026.20
2019-02-27T03:20:54.167Z,1026.16
2019-02-27T03:21:54.184Z,1026.18
2019-02-27T03:22:54.172Z,1026.15
2019-02-27T03:23:54.138Z,1026.13
2019-02-27T03:24:54.126Z,1026.12
2019-02-27T03:25:54.124Z,1026.08
2019-02-27T03:26:54.132Z,1026.01
2019-02-27T03:27:54.088Z,1026.02
2019-02-27T03:28:54.094Z,1026.04
2019-02-27T03:29:54.074Z,1025.99
2019-02-27T03:30:54.102Z,1025.99
2019-02-27T03:32:00.071Z,1025.98
2019-02-27T03:32:55.051Z,1026.00
2019-02-27T03:33:54.042Z,1025.96
2019-02-27T03:34:54.027Z,1025.97
2019-02-27T03:35:54.043Z,1025.98
2019-02-27T03:36:54.015Z,1025.96
2019-02-27T03:37:53.997Z,1026.01
2019-02-27T03:38:55.899Z,1025.94
2019-02-27T03:39:54.978Z,1025.93
2019-02-27T03:40:53.985Z,1025.92
2019-02-27T03:41:58.492Z,1025.91
2019-02-27T03:42:54.980Z,1025.95
2019-02-27T03:43:53.928Z,1025.92
2019-02-27T03:44:56.359Z,1025.87
2019-02-27T03:45:53.896Z,1025.90
2019-02-27T03:46:53.906Z,1025.90
2019-02-27T03:47:53.883Z,1025.94
2019-02-27T03:48:53.889Z,1025.86
2019-02-27T03:49:53.869Z,1025.89
2019-02-27T03:50:53.865Z,1025.90
2019-02-27T03:51:59.947Z,1025.86
2019-02-27T03:52:54.838Z,1025.89
2019-02-27T03:53:53.868Z,1025.90
2019-02-27T03:54:56.956Z,1025.89
2019-02-27T03:55:53.801Z,1025.85
2019-02-27T03:56:53.790Z,1025.83
2019-02-27T03:57:55.278Z,1025.88
2019-02-27T03:58:53.814Z,1025.88
2019-02-27T03:59:53.763Z,1025.88
2019-02-27T04:00:54.218Z,1025.85
2019-02-27T04:01:53.751Z,1025.88
2019-02-27T04:02:53.777Z,1025.85
2019-02-27T04:03:55.326Z,1025.82
2019-02-27T04:04:53.733Z,1025.86
2019-02-27T04:05:53.706Z,1025.83
2019-02-27T04:06:56.303Z,1025.86
2019-02-27T04:07:53.681Z,1025.82
2019-02-27T04:08:53.655Z,1025.83
2019-02-27T04:09:55.384Z,1025.80
2019-02-27T04:10:53.679Z,1025.82
2019-02-27T04:11:53.630Z,1025.80
2019-02-27T04:12:53.618Z,1025.75
2019-02-27T04:13:53.615Z,1025.78
2019-02-27T04:14:53.669Z,1025.80
2019-02-27T04:15:54.437Z,1025.77
2019-02-27T04:16:53.637Z,1025.77
2019-02-27T04:17:53.561Z,1025.82
2019-02-27T04:18:53.552Z,1025.80
2019-02-27T04:19:53.562Z,1025.84
2019-02-27T04:20:53.534Z,1025.81
2019-02-27T04:21:53.537Z,1025.76
2019-02-27T04:22:53.513Z,1025.79
2019-02-27T04:23:53.513Z,1025.76
2019-02-27T04:24:56.610Z,1025.77
2019-02-27T04:25:53.505Z,1025.74
2019-02-27T04:26:53.491Z,1025.72
2019-02-27T04:27:55.599Z,1025.69
2019-02-27T04:28:53.452Z,1025.74
2019-02-27T04:29:53.433Z,1025.69
2019-02-27T04:30:53.475Z,1025.70
2019-02-27T04:31:53.421Z,1025.62
2019-02-27T04:32:53.415Z,1025.64
2019-02-27T04:33:53.400Z,1025.62
2019-02-27T04:34:53.393Z,1025.66
2019-02-27T04:35:53.371Z,1025.62
2019-02-27T04:36:53.395Z,1025.61
2019-02-27T04:37:54.383Z,1025.60
2019-02-27T04:38:53.351Z,1025.63
2019-02-27T04:39:53.345Z,1025.58
2019-02-27T04:40:53.392Z,1025.58
2019-02-27T04:41:53.308Z,1025.55
2019-02-27T04:42:53.324Z,1025.55
2019-02-27T04:43:53.288Z,1025.54
2019-02-27T04:44:53.303Z,1025.54
2019-02-27T04:45:53.278Z,1025.54
2019-02-27T04:46:55.103Z,1025.55
2019-02-27T04:47:53.246Z,1025.53
2019-02-27T04:48:53.262Z,1025.56
2019-02-27T04:49:53.220Z,1025.52
2019-02-27T04:50:53.233Z,1025.52
2019-02-27T04:51:53.204Z,1025.52
2019-02-27T04:52:53.200Z,1025.56
2019-02-27T04:53:53.240Z,1025.55
2019-02-27T04:54:53.181Z,1025.53
2019-02-27T04:55:53.164Z,1025.55
2019-02-27T04:56:55.040Z,1025.52
2019-02-27T04:57:53.237Z,1025.53
2019-02-27T04:58:53.191Z,1025.49
2019-02-27T04:59:53.233Z,1025.49
2019-02-27T05:00:53.105Z,1025.48
2019-02-27T05:01:53.109Z,1025.46
2019-02-27T05:02:53.426Z,1025.48
2019-02-27T05:03:53.124Z,1025.49
2019-02-27T05:04:53.068Z,1025.48
2019-02-27T05:05:53.086Z,1025.51
2019-02-27T05:06:53.141Z,1025.49
2019-02-27T05:07:54.319Z,1025.52
2019-02-27T05:08:53.054Z,1025.51
2019-02-27T05:09:53.022Z,1025.55
2019-02-27T05:10:52.999Z,1025.52
2019-02-27T05:11:53.460Z,1025.55
2019-02-27T05:12:53.114Z,1025.52
2019-02-27T05:13:54.273Z,1025.51
2019-02-27T05:14:52.971Z,1025.53
2019-02-27T05:15:53.020Z,1025.56
2019-02-27T05:16:53.007Z,1025.50
2019-02-27T05:17:55.484Z,1025.50
2019-02-27T05:18:52.937Z,1025.47
2019-02-27T05:19:52.924Z,1025.54
2019-02-27T05:20:52.915Z,1025.53
2019-02-27T05:21:53.138Z,1025.53
2019-02-27T05:22:52.929Z,1025.48
2019-02-27T05:23:52.872Z,1025.47
2019-02-27T05:24:52.867Z,1025.45
2019-02-27T05:25:52.874Z,1025.46
2019-02-27T05:26:52.839Z,1025.45
2019-02-27T05:27:52.825Z,1025.44
2019-02-27T05:28:52.886Z,1025.44
2019-02-27T05:29:52.799Z,1025.41
2019-02-27T05:30:52.798Z,1025.41
2019-02-27T05:31:53.257Z,1025.40
2019-02-27T05:32:52.774Z,1025.38
2019-02-27T05:33:52.823Z,1025.42
2019-02-27T05:34:52.763Z,1025.39
2019-02-27T05:35:57.019Z,1025.43
2019-02-27T05:36:53.743Z,1025.39
2019-02-27T05:37:52.748Z,1025.40
2019-02-27T05:38:52.709Z,1025.43
2019-02-27T05:39:52.717Z,1025.39
2019-02-27T05:40:52.687Z,1025.40
2019-02-27T05:41:52.695Z,1025.41
2019-02-27T05:42:52.673Z,1025.37
2019-02-27T05:43:52.679Z,1025.39
2019-02-27T05:44:55.599Z,1025.35
2019-02-27T05:45:52.685Z,1025.36
2019-02-27T05:46:52.624Z,1025.37
2019-02-27T05:47:52.623Z,1025.37
2019-02-27T05:48:53.357Z,1025.35
2019-02-27T05:49:52.599Z,1025.33
2019-02-27T05:50:52.633Z,1025.31
2019-02-27T05:51:52.641Z,1025.37
2019-02-27T05:52:52.582Z,1025.35
2019-02-27T05:53:52.545Z,1025.34
2019-02-27T05:54:52.559Z,1025.36
2019-02-27T05:55:52.550Z,1025.34
2019-02-27T05:56:52.575Z,1025.38
2019-02-27T05:57:52.535Z,1025.38
2019-02-27T05:58:56.115Z,1025.32
2019-02-27T05:59:52.483Z,1025.38
2019-02-27T06:00:52.490Z,1025.35
2019-02-27T06:01:52.478Z,1025.32
2019-02-27T06:02:52.488Z,1025.27
2019-02-27T06:03:53.007Z,1025.28
2019-02-27T06:04:52.437Z,1025.28
2019-02-27T06:05:52.444Z,1025.29
2019-02-27T06:06:52.447Z,1025.25
2019-02-27T06:07:52.440Z,1025.33
2019-02-27T06:08:52.406Z,1025.27
2019-02-27T06:09:52.437Z,1025.31
2019-02-27T06:10:56.037Z,1025.34
2019-02-27T06:11:52.363Z,1025.30
2019-02-27T06:12:52.377Z,1025.26
2019-02-27T06:13:52.372Z,1025.29
2019-02-27T06:14:54.809Z,1025.28
2019-02-27T06:15:52.336Z,1025.26
2019-02-27T06:16:52.334Z,1025.28
2019-02-27T06:17:52.323Z,1025.29
2019-02-27T06:18:56.062Z,1025.29
2019-02-27T06:19:52.286Z,1025.35
2019-02-27T06:20:52.270Z,1025.32
2019-02-27T06:21:56.068Z,1025.31
2019-02-27T06:22:52.243Z,1025.27
2019-02-27T06:23:52.232Z,1025.30
2019-02-27T06:24:52.263Z,1025.34
2019-02-27T06:25:52.215Z,1025.34
2019-02-27T06:26:52.211Z,1025.31
2019-02-27T06:27:52.204Z,1025.32
2019-02-27T06:28:52.181Z,1025.30
2019-02-27T06:29:52.173Z,1025.26
2019-02-27T06:30:52.199Z,1025.31
2019-02-27T06:31:52.156Z,1025.32
2019-02-27T06:32:52.146Z,1025.34
2019-02-27T06:33:52.143Z,1025.27
2019-02-27T06:34:52.201Z,1025.30
2019-02-27T06:35:52.147Z,1025.28
2019-02-27T06:36:52.116Z,1025.25
2019-02-27T06:37:52.115Z,1025.26
2019-02-27T06:38:52.087Z,1025.27
2019-02-27T06:39:54.101Z,1025.18
2019-02-27T06:40:52.057Z,1025.23
2019-02-27T06:41:52.110Z,1025.22
2019-02-27T06:42:53.887Z,1025.19
2019-02-27T06:43:52.032Z,1025.17
2019-02-27T06:44:52.029Z,1025.13
2019-02-27T06:45:54.150Z,1025.11
2019-02-27T06:46:53.914Z,1025.10
2019-02-27T06:47:52.016Z,1025.13
2019-02-27T06:48:51.975Z,1025.09
2019-02-27T06:49:52.575Z,1025.06
2019-02-27T06:50:51.952Z,1025.11
2019-02-27T06:51:51.982Z,1025.05
2019-02-27T06:52:51.934Z,1025.07
2019-02-27T06:53:51.937Z,1025.08
2019-02-27T06:54:52.845Z,1025.05
2019-02-27T06:55:51.909Z,1025.00
2019-02-27T06:56:51.911Z,1025.00
2019-02-27T06:57:51.921Z,1025.03
2019-02-27T06:58:51.926Z,1025.03
2019-02-27T06:59:51.942Z,1024.99
2019-02-27T07:00:51.842Z,1025.03
2019-02-27T07:01:51.845Z,1024.93
2019-02-27T07:02:55.236Z,1024.94
2019-02-27T07:03:51.821Z,1024.95
2019-02-27T07:04:51.845Z,1024.88
2019-02-27T07:05:51.790Z,1024.90
2019-02-27T07:06:55.226Z,1024.88
2019-02-27T07:07:51.927Z,1024.87
2019-02-27T07:08:51.766Z,1024.79
2019-02-27T07:09:51.761Z,1024.84
2019-02-27T07:10:51.768Z,1024.82
2019-02-27T07:11:51.747Z,1024.79
2019-02-27T07:12:54.471Z,1024.84
2019-02-27T07:13:51.734Z,1024.83
2019-02-27T07:14:51.716Z,1024.78
2019-02-27T07:15:51.699Z,1024.79
2019-02-27T07:16:51.726Z,1024.82
2019-02-27T07:17:51.693Z,1024.82
2019-02-27T07:18:51.725Z,1024.82
2019-02-27T07:19:51.651Z,1024.88
2019-02-27T07:20:51.642Z,1024.83
2019-02-27T07:21:51.672Z,1024.86
2019-02-27T07:22:51.633Z,1024.80
2019-02-27T07:23:51.607Z,1024.80
2019-02-27T07:24:51.600Z,1024.81
2019-02-27T07:25:51.599Z,1024.76
2019-02-27T07:26:51.642Z,1024.76
2019-02-27T07:27:51.592Z,1024.75
2019-02-27T07:28:51.586Z,1024.71
2019-02-27T07:29:51.545Z,1024.77
2019-02-27T07:30:51.526Z,1024.79
2019-02-27T07:31:52.048Z,1024.79
2019-02-27T07:32:51.511Z,1024.78
2019-02-27T07:33:51.546Z,1024.73
2019-02-27T07:34:51.521Z,1024.80
2019-02-27T07:35:51.480Z,1024.79
2019-02-27T07:36:51.475Z,1024.78
2019-02-27T07:37:51.464Z,1024.77
2019-02-27T07:38:51.530Z,1024.77
2019-02-27T07:39:51.437Z,1024.76
2019-02-27T07:40:51.441Z,1024.82
2019-02-27T07:41:51.417Z,1024.75
2019-02-27T07:42:51.418Z,1024.74
2019-02-27T07:43:51.408Z,1024.79
2019-02-27T07:44:51.389Z,1024.73
2019-02-27T07:45:51.381Z,1024.76
2019-02-27T07:46:51.383Z,1024.69
2019-02-27T07:47:51.354Z,1024.73
2019-02-27T07:48:51.388Z,1024.66
2019-02-27T07:49:51.337Z,1024.70
2019-02-27T07:50:51.345Z,1024.68
2019-02-27T07:51:51.322Z,1024.68
2019-02-27T07:52:52.204Z,1024.74
2019-02-27T07:53:53.557Z,1024.74
2019-02-27T07:54:51.330Z,1024.76
2019-02-27T07:55:51.287Z,1024.76
2019-02-27T07:56:51.255Z,1024.70
2019-02-27T07:57:51.248Z,1024.74
2019-02-27T07:58:51.260Z,1024.75
2019-02-27T07:59:51.224Z,1024.68
2019-02-27T08:00:51.229Z,1024.68
2019-02-27T08:01:51.216Z,1024.71
2019-02-27T08:02:51.204Z,1024.70
2019-02-27T08:03:51.202Z,1024.75
2019-02-27T08:04:51.722Z,1024.76
2019-02-27T08:05:51.173Z,1024.75
2019-02-27T08:06:51.151Z,1024.73
2019-02-27T08:07:51.163Z,1024.71
2019-02-27T08:08:51.165Z,1024.71
2019-02-27T08:09:51.134Z,1024.69
2019-02-27T08:10:51.105Z,1024.71
2019-02-27T08:11:51.095Z,1024.76
2019-02-27T08:12:55.574Z,1024.71
2019-02-27T08:13:52.125Z,1024.72
2019-02-27T08:14:51.078Z,1024.79
2019-02-27T08:15:51.062Z,1024.62
2019-02-27T08:16:51.064Z,1024.61
2019-02-27T08:17:51.060Z,1024.61
2019-02-27T08:18:51.050Z,1024.62
2019-02-27T08:19:51.041Z,1024.59
2019-02-27T08:20:54.206Z,1024.62
2019-02-27T08:21:50.990Z,1024.63
2019-02-27T08:22:50.977Z,1024.64
2019-02-27T08:23:51.008Z,1024.65
2019-02-27T08:24:50.998Z,1024.63
2019-02-27T08:25:50.938Z,1024.67
2019-02-27T08:26:50.940Z,1024.69
2019-02-27T08:27:50.930Z,1024.71
2019-02-27T08:28:50.922Z,1024.71
2019-02-27T08:29:50.909Z,1024.72
2019-02-27T08:30:50.931Z,1024.76
2019-02-27T08:31:50.881Z,1024.72
2019-02-27T08:32:50.873Z,1024.69
2019-02-27T08:33:50.874Z,1024.72
2019-02-27T08:34:50.874Z,1024.68
2019-02-27T08:35:51.186Z,1024.66
2019-02-27T08:36:50.862Z,1024.61
2019-02-27T08:37:50.842Z,1024.63
2019-02-27T08:38:50.811Z,1024.64
2019-02-27T08:39:50.836Z,1024.59
2019-02-27T08:40:50.783Z,1024.53
2019-02-27T08:41:50.826Z,1024.55
2019-02-27T08:42:50.779Z,1024.51
2019-02-27T08:43:50.790Z,1024.52
2019-02-27T08:44:50.788Z,1024.51
2019-02-27T08:45:50.747Z,1024.53
2019-02-27T08:46:50.752Z,1024.48
2019-02-27T08:47:50.739Z,1024.47
2019-02-27T08:48:50.756Z,1024.49
2019-02-27T08:49:50.692Z,1024.45
2019-02-27T08:50:50.690Z,1024.44
2019-02-27T08:51:50.702Z,1024.42
2019-02-27T08:53:51.751Z,1024.44
2019-02-27T08:54:50.632Z,1024.42
2019-02-27T08:55:50.637Z,1024.45
2019-02-27T08:56:50.623Z,1024.43
2019-02-27T08:57:55.588Z,1024.41
2019-02-27T08:58:51.631Z,1024.48
2019-02-27T08:59:50.581Z,1024.39
2019-02-27T09:00:51.841Z,1024.43
2019-02-27T09:01:55.432Z,1024.40
2019-02-27T09:02:51.548Z,1024.35
2019-02-27T09:03:50.587Z,1024.35
2019-02-27T09:04:50.543Z,1024.35
2019-02-27T09:05:51.006Z,1024.37
2019-02-27T09:06:50.506Z,1024.29
2019-02-27T09:07:50.500Z,1024.27
2019-02-27T09:08:50.481Z,1024.16
2019-02-27T09:09:51.612Z,1024.21
2019-02-27T09:10:50.459Z,1024.14
2019-02-27T09:11:50.457Z,1024.08
2019-02-27T09:12:51.829Z,1024.11
2019-02-27T09:13:50.434Z,1024.10
2019-02-27T09:14:50.464Z,1024.07
2019-02-27T09:15:50.506Z,1024.07
2019-02-27T09:16:50.493Z,1024.07
2019-02-27T09:17:50.427Z,1024.05
2019-02-27T09:18:50.381Z,1024.06
2019-02-27T09:19:50.372Z,1024.11
2019-02-27T09:20:53.123Z,1024.08
2019-02-27T09:21:50.362Z,1024.10
2019-02-27T09:22:50.375Z,1024.06
2019-02-27T09:23:50.344Z,1024.05
2019-02-27T09:24:50.314Z,1023.98
2019-02-27T09:25:57.066Z,1023.98
2019-02-27T09:26:51.316Z,1023.97
2019-02-27T09:27:50.301Z,1023.99
2019-02-27T09:28:50.303Z,1024.05
2019-02-27T09:29:52.342Z,1023.99
2019-02-27T09:30:50.261Z,1023.95
2019-02-27T09:31:50.963Z,1023.91
2019-02-27T09:32:50.239Z,1023.91
2019-02-27T09:33:53.060Z,1023.88
2019-02-27T09:34:50.233Z,1023.87
2019-02-27T09:35:50.194Z,1023.84
2019-02-27T09:36:50.202Z,1023.83
2019-02-27T09:37:51.329Z,1023.78
2019-02-27T09:38:50.154Z,1023.71
2019-02-27T09:39:50.154Z,1023.71
2019-02-27T09:40:50.154Z,1023.70
2019-02-27T09:41:51.266Z,1023.67
2019-02-27T09:42:52.740Z,1023.70
2019-02-27T09:43:50.137Z,1023.69
2019-02-27T09:44:50.125Z,1023.68
2019-02-27T09:45:50.113Z,1023.65
2019-02-27T09:46:52.427Z,1023.70
2019-02-27T09:47:50.062Z,1023.69
2019-02-27T09:48:50.102Z,1023.68
2019-02-27T09:49:50.040Z,1023.72
2019-02-27T09:50:50.052Z,1023.62
2019-02-27T09:51:50.042Z,1023.62
2019-02-27T09:52:50.003Z,1023.65
2019-02-27T09:53:50.004Z,1023.63
2019-02-27T09:54:50.016Z,1023.57
2019-02-27T09:55:53.510Z,1023.58
2019-02-27T09:56:49.989Z,1023.57
2019-02-27T09:57:49.958Z,1023.56
2019-02-27T09:58:49.942Z,1023.51
2019-02-27T09:59:51.166Z,1023.52
2019-02-27T10:00:49.961Z,1023.45
2019-02-27T10:01:49.931Z,1023.38
2019-02-27T10:02:49.903Z,1023.40
2019-02-27T10:03:52.086Z,1023.41
2019-02-27T10:04:49.900Z,1023.35
2019-02-27T10:05:49.876Z,1023.31
2019-02-27T10:06:49.890Z,1023.31
2019-02-27T10:07:51.348Z,1023.34
2019-02-27T10:08:49.847Z,1023.28
2019-02-27T10:09:49.834Z,1023.28
2019-02-27T10:10:49.850Z,1023.33
2019-02-27T10:11:52.249Z,1023.31
2019-02-27T10:12:49.825Z,1023.33
2019-02-27T10:13:49.784Z,1023.26
2019-02-27T10:14:50.272Z,1023.24
2019-02-27T10:15:49.768Z,1023.29
2019-02-27T10:16:49.802Z,1023.23
2019-02-27T10:17:49.761Z,1023.21
2019-02-27T10:18:49.726Z,1023.20
2019-02-27T10:19:49.720Z,1023.20
2019-02-27T10:20:49.739Z,1023.18
2019-02-27T10:21:49.737Z,1023.16
2019-02-27T10:22:49.711Z,1023.15
2019-02-27T10:23:49.698Z,1023.13
2019-02-27T10:24:49.660Z,1023.15
2019-02-27T10:25:49.994Z,1023.18
2019-02-27T10:26:49.645Z,1023.09
2019-02-27T10:27:49.659Z,1023.05
2019-02-27T10:28:49.637Z,1023.09
2019-02-27T10:29:49.683Z,1023.09
2019-02-27T10:30:49.920Z,1023.07
2019-02-27T10:31:49.585Z,1023.08
2019-02-27T10:32:49.592Z,1023.07
2019-02-27T10:33:49.580Z,1023.01
2019-02-27T10:34:51.022Z,1023.03
2019-02-27T10:35:49.560Z,1023.06
2019-02-27T10:36:49.550Z,1023.05
2019-02-27T10:37:51.131Z,1023.07
2019-02-27T10:38:49.532Z,1023.02
2019-02-27T10:39:49.493Z,1022.98
2019-02-27T10:40:49.539Z,1022.96
2019-02-27T10:41:50.555Z,1022.95
2019-02-27T10:42:50.412Z,1022.89
2019-02-27T10:43:49.451Z,1022.94
2019-02-27T10:44:49.471Z,1022.91
2019-02-27T10:45:49.508Z,1022.85
2019-02-27T10:46:49.414Z,1022.83
2019-02-27T10:47:49.413Z,1022.84
2019-02-27T10:48:49.425Z,1022.81
2019-02-27T10:49:49.399Z,1022.91
2019-02-27T10:50:49.389Z,1022.84
2019-02-27T10:51:49.377Z,1022.81
2019-02-27T10:52:50.128Z,1022.89
2019-02-27T10:53:50.368Z,1022.86
2019-02-27T10:54:49.342Z,1022.79
2019-02-27T10:55:50.024Z,1022.78
2019-02-27T10:56:49.355Z,1022.72
2019-02-27T10:57:49.293Z,1022.72
2019-02-27T10:58:49.289Z,1022.68
2019-02-27T10:59:49.271Z,1022.64
2019-02-27T11:00:49.337Z,1022.60
2019-02-27T11:01:49.292Z,1022.55
2019-02-27T11:02:52.275Z,1022.54
2019-02-27T11:03:49.260Z,1022.50
2019-02-27T11:04:50.039Z,1022.49
2019-02-27T11:05:52.317Z,1022.47
2019-02-27T11:06:50.279Z,1022.51
2019-02-27T11:07:50.142Z,1022.41
2019-02-27T11:08:49.187Z,1022.47
2019-02-27T11:09:49.167Z,1022.46
2019-02-27T11:10:49.152Z,1022.43
2019-02-27T11:11:53.670Z,1022.40
2019-02-27T11:12:49.146Z,1022.38
2019-02-27T11:13:51.715Z,1022.35
2019-02-27T11:14:50.241Z,1022.30
2019-02-27T11:15:49.138Z,1022.30
2019-02-27T11:16:49.099Z,1022.27
2019-02-27T11:17:49.121Z,1022.33
2019-02-27T11:18:49.080Z,1022.31
2019-02-27T11:19:49.061Z,1022.36
2019-02-27T11:20:49.100Z,1022.26
2019-02-27T11:21:49.071Z,1022.34
2019-02-27T11:22:49.066Z,1022.32
2019-02-27T11:23:49.045Z,1022.25
2019-02-27T11:24:49.516Z,1022.14
2019-02-27T11:25:49.015Z,1022.21
2019-02-27T11:26:48.977Z,1022.21
2019-02-27T11:27:48.998Z,1022.12
2019-02-27T11:28:48.958Z,1022.15
2019-02-27T11:29:49.028Z,1022.12
2019-02-27T11:30:50.959Z,1022.14
2019-02-27T11:31:48.932Z,1022.13
2019-02-27T11:32:48.936Z,1022.02
2019-02-27T11:33:48.947Z,1022.04
2019-02-27T11:34:49.219Z,1022.09
2019-02-27T11:35:48.885Z,1022.06
2019-02-27T11:36:48.871Z,1022.04
2019-02-27T11:37:48.877Z,1021.98
2019-02-27T11:38:48.878Z,1021.91
2019-02-27T11:39:48.894Z,1021.90
2019-02-27T11:40:48.846Z,1021.91
2019-02-27T11:41:49.186Z,1021.80
2019-02-27T11:42:48.813Z,1021.78
2019-02-27T11:43:48.879Z,1021.77
2019-02-27T11:44:49.607Z,1021.82
2019-02-27T11:45:48.794Z,1021.77
2019-02-27T11:46:58.407Z,1021.84
2019-02-27T11:47:49.850Z,1021.74
2019-02-27T11:48:48.757Z,1021.67
2019-02-27T11:49:48.765Z,1021.73
2019-02-27T11:50:48.816Z,1021.75
2019-02-27T11:51:50.635Z,1021.77
2019-02-27T11:52:49.288Z,1021.83
2019-02-27T11:53:48.697Z,1021.72
2019-02-27T11:54:48.714Z,1021.78
2019-02-27T11:55:48.705Z,1021.77
2019-02-27T11:56:51.490Z,1021.83
2019-02-27T11:57:49.648Z,1021.80
2019-02-27T11:58:48.653Z,1021.87
2019-02-27T11:59:48.635Z,1021.81
2019-02-27T12:00:48.628Z,1021.87
2019-02-27T12:01:48.620Z,1021.79
2019-02-27T12:02:48.648Z,1021.84
2019-02-27T12:03:48.597Z,1021.84
2019-02-27T12:04:48.569Z,1021.78
2019-02-27T12:05:48.587Z,1021.77
2019-02-27T12:06:48.569Z,1021.79